Time;durP1;ratioP1;P1;durP2;ratioP2;P2;SDS_P1;SDS_P2;PMS_P1;PMS_P2;Temp;Humidity;BMP_temperature;BMP_pressure;BME280_temperature;BME280_humidity;BME280_pressure;Samples;Min_cycle;Max_cycle;Signal;HPM_P1;HPM_P2
2022/09/28 00:02:15;;;;;;;1.25;0.55;;;;;;;7.38;100.00;97300.19;5050015;28;20516;-76
2022/09/28 00:04:41;;;;;;;1.20;0.90;;;;;;;7.49;100.00;97308.69;5054458;28;20044;-76
2022/09/28 00:07:08;;;;;;;1.80;0.73;;;;;;;7.33;100.00;97288.31;5044705;28;20057;-76
2022/09/28 00:09:34;;;;;;;2.20;0.90;;;;;;;7.37;100.00;97276.06;5056013;28;20496;-76
2022/09/28 00:12:01;;;;;;;2.10;0.82;;;;;;;7.52;100.00;97295.56;5052475;28;20049;-76
2022/09/28 00:14:31;;;;;;;2.60;0.93;;;;;;;7.43;100.00;97283.31;5052983;28;20055;-76
2022/09/28 00:16:57;;;;;;;1.25;0.70;;;;;;;7.61;100.00;97280.78;5052519;28;20048;-76
2022/09/28 00:19:24;;;;;;;1.50;0.90;;;;;;;7.58;100.00;97269.56;5050653;28;20052;-76
2022/09/28 00:21:50;;;;;;;1.67;0.52;;;;;;;7.52;100.00;97252.31;5054935;28;20524;-76
2022/09/28 00:24:17;;;;;;;2.55;0.80;;;;;;;7.57;100.00;97259.78;5053680;28;20049;-76
2022/09/28 00:26:47;;;;;;;0.93;0.70;;;;;;;7.51;100.00;97247.13;5056159;28;20167;-76
2022/09/28 00:29:20;;;;;;;0.95;0.70;;;;;;;7.43;100.00;97230.06;5050014;28;20045;-77
2022/09/28 00:31:52;;;;;;;0.63;0.63;;;;;;;7.52;100.00;97233.38;5054924;28;20048;-76
2022/09/28 00:34:19;;;;;;;2.08;0.98;;;;;;;7.56;100.00;97233.81;5052068;28;20083;-76
2022/09/28 00:36:46;;;;;;;0.70;0.70;;;;;;;7.62;100.00;97236.47;5053254;28;20052;-76
2022/09/28 00:39:14;;;;;;;1.02;0.75;;;;;;;7.62;100.00;97241.06;5054494;28;20118;-76
2022/09/28 00:41:41;;;;;;;3.65;1.00;;;;;;;7.57;100.00;97209.25;5057710;28;20049;-76
2022/09/28 00:44:38;;;;;;;3.00;0.90;;;;;;;7.57;100.00;97209.25;5045096;28;20060;-76
2022/09/28 00:47:42;;;;;;;1.27;0.85;;;;;;;7.60;100.00;97208.81;5051409;28;20049;-76
2022/09/28 00:50:14;;;;;;;0.73;0.60;;;;;;;7.68;100.00;97218.56;4970595;28;20054;-76
2022/09/28 00:52:45;;;;;;;1.33;0.77;;;;;;;7.66;100.00;97200.88;5052957;28;20053;-76
2022/09/28 00:55:16;;;;;;;1.08;0.90;;;;;;;7.66;100.00;97196.28;5044293;28;20045;-76
2022/09/28 00:57:48;;;;;;;1.30;0.70;;;;;;;7.77;100.00;97209.16;5056005;28;20181;-76
2022/09/28 01:00:15;;;;;;;1.33;0.63;;;;;;;7.75;100.00;97184.22;5050485;28;20045;-76
2022/09/28 01:02:45;;;;;;;1.48;0.75;;;;;;;7.74;100.00;97185.25;5048571;28;20095;-76
2022/09/28 01:05:12;;;;;;;0.80;0.70;;;;;;;7.75;100.00;97167.97;5051826;28;20049;-76
2022/09/28 01:07:40;;;;;;;3.90;1.00;;;;;;;7.70;100.00;97158.84;5057298;28;20442;-76
2022/09/28 01:10:08;;;;;;;0.68;0.68;;;;;;;7.87;100.00;97186.22;5056391;28;20048;-76
2022/09/28 01:12:34;;;;;;;1.58;0.65;;;;;;;7.73;100.00;97163.81;5053323;28;20423;-76
2022/09/28 01:15:02;;;;;;;0.77;0.60;;;;;;;7.78;100.00;97155.88;5054591;28;20055;-76
2022/09/28 01:17:35;;;;;;;2.05;0.90;;;;;;;7.95;100.00;97177.88;5053399;28;20060;-76
2022/09/28 01:20:38;;;;;;;4.70;1.00;;;;;;;7.78;100.00;97145.06;5049372;28;20053;-76
2022/09/28 01:23:40;;;;;;;1.08;0.98;;;;;;;7.91;100.00;97153.09;5054163;28;20488;-76
2022/09/28 01:26:38;;;;;;;3.00;0.90;;;;;;;7.80;100.00;97130.28;5050893;28;20053;-76
2022/09/28 01:29:16;;;;;;;3.58;1.20;;;;;;;7.84;100.00;97122.53;5054054;28;20049;-76
2022/09/28 01:31:49;;;;;;;2.42;1.05;;;;;;;7.83;100.00;97118.19;5049619;28;20492;-76
2022/09/28 01:34:21;;;;;;;5.13;0.80;;;;;;;7.78;100.00;97109.91;5055268;28;20337;-76
2022/09/28 01:36:50;;;;;;;0.85;0.70;;;;;;;7.80;100.00;97108.63;5052503;28;20057;-76
2022/09/28 01:39:23;;;;;;;1.58;0.85;;;;;;;7.97;100.00;97102.72;5053346;28;20272;-76
2022/09/28 01:41:56;;;;;;;2.17;0.80;;;;;;;8.01;100.00;97100.38;5051844;28;20056;-76
2022/09/28 01:44:26;;;;;;;1.83;0.95;;;;;;;7.83;100.00;97080.34;5050404;28;20053;-76
2022/09/28 01:46:53;;;;;;;;;;;;;;;8.02;100.00;97107.47;5053170;28;20053;-76
2022/09/28 01:49:23;;;;;;;1.67;0.60;;;;;;;7.86;100.00;97074.47;5058627;28;19932;-76
2022/09/28 01:51:55;;;;;;;5.43;1.00;;;;;;;7.91;100.00;97079.22;5057554;28;20045;-76
2022/09/28 01:54:27;;;;;;;3.90;0.80;;;;;;;7.87;100.00;97067.19;5058310;28;20057;-76
2022/09/28 01:57:02;;;;;;;0.73;0.63;;;;;;;7.92;100.00;97065.50;5053117;28;20049;-76
2022/09/28 01:59:30;;;;;;;2.65;0.77;;;;;;;8.09;100.00;97086.59;5057796;28;20056;-76
2022/09/28 02:02:04;;;;;;;1.85;0.90;;;;;;;7.91;100.00;97061.13;5062329;28;20054;-76
2022/09/28 02:04:34;;;;;;;2.95;0.80;;;;;;;7.96;100.00;97047.78;5058279;28;20060;-77
2022/09/28 02:07:06;;;;;;;3.08;0.80;;;;;;;8.04;100.00;97051.22;5059282;28;20048;-76
2022/09/28 02:09:37;;;;;;;1.05;0.80;;;;;;;8.01;100.00;97043.56;5058244;28;20134;-76
2022/09/28 02:12:10;;;;;;;1.77;0.88;;;;;;;7.96;100.00;97033.41;5052808;28;20052;-76
2022/09/28 02:14:39;;;;;;;2.72;0.90;;;;;;;8.06;100.00;97046.44;5058146;28;20053;-76
2022/09/28 02:17:06;;;;;;;2.83;0.65;;;;;;;8.10;100.00;97053.06;5052697;28;20049;-76
2022/09/28 02:19:33;;;;;;;2.15;1.00;;;;;;;8.17;100.00;97036.78;5059371;28;20104;-76
2022/09/28 02:22:08;;;;;;;2.30;0.80;;;;;;;8.27;100.00;97042.53;5057588;28;20071;-77
2022/09/28 02:24:38;;;;;;;3.97;0.70;;;;;;;8.16;100.00;97011.59;5048903;28;20053;-76
2022/09/28 02:27:14;;;;;;;3.45;1.00;;;;;;;8.29;100.00;97052.06;5058740;28;20056;-76
2022/09/28 02:29:40;;;;;;;5.03;1.20;;;;;;;8.27;100.00;97035.22;5049488;28;20049;-76
2022/09/28 02:32:07;;;;;;;5.88;1.08;;;;;;;8.18;100.00;97014.09;5050015;28;20048;-76
2022/09/28 02:34:35;;;;;;;0.95;0.88;;;;;;;8.36;100.00;97033.06;5059812;28;20056;-76
2022/09/28 02:37:02;;;;;;;2.95;1.00;;;;;;;8.25;100.00;97021.09;5052565;28;20060;-76
2022/09/28 02:39:28;;;;;;;2.03;0.90;;;;;;;8.20;100.00;97003.84;5054971;28;20048;-76
2022/09/28 02:42:06;;;;;;;4.32;0.93;;;;;;;8.32;100.00;97018.31;5057199;28;20052;-76
2022/09/28 02:45:00;;;;;;;3.63;0.90;;;;;;;8.25;100.00;97004.00;5055733;28;20072;-76
2022/09/28 02:47:38;;;;;;;6.47;1.20;;;;;;;8.24;100.00;96988.81;5046674;28;20056;-76
2022/09/28 02:50:15;;;;;;;8.68;1.10;;;;;;;8.35;100.00;97001.63;5049290;28;20056;-76
2022/09/28 02:53:03;;;;;;;2.15;1.10;;;;;;;8.39;100.00;96992.00;5052552;28;20417;-76
2022/09/28 02:55:42;;;;;;;1.73;0.70;;;;;;;8.34;100.00;96989.16;5055013;28;20492;-76
2022/09/28 02:58:21;;;;;;;4.05;0.95;;;;;;;8.46;100.00;97002.78;5062835;28;20048;-76
2022/09/28 03:00:55;;;;;;;5.47;1.05;;;;;;;8.43;100.00;96995.91;5044697;28;20252;-76
2022/09/28 03:03:30;;;;;;;5.15;1.27;;;;;;;8.39;100.00;96977.66;5053830;28;20044;-76
2022/09/28 03:06:02;;;;;;;5.68;1.15;;;;;;;8.38;100.00;96979.50;5056890;28;20142;-77
2022/09/28 03:08:33;;;;;;;4.80;1.35;;;;;;;8.36;100.00;96981.63;5051741;28;20067;-76
2022/09/28 03:11:03;;;;;;;7.18;0.90;;;;;;;8.48;100.00;96992.56;5051619;28;20053;-76
2022/09/28 03:13:31;;;;;;;;;;;;;;;8.53;100.00;96992.72;5054705;28;20053;-76
2022/09/28 03:16:10;;;;;;;4.15;0.90;;;;;;;8.41;100.00;96973.63;5057239;28;19927;-76
2022/09/28 03:18:37;;;;;;;10.45;1.38;;;;;;;8.55;100.00;97008.72;5055706;28;20049;-76
2022/09/28 03:21:04;;;;;;;9.10;1.45;;;;;;;8.41;100.00;96987.19;5057458;28;20066;-76
2022/09/28 03:23:31;;;;;;;4.93;1.13;;;;;;;8.53;100.00;97000.84;5056661;28;20381;-77
2022/09/28 03:25:57;;;;;;;4.15;0.73;;;;;;;8.46;100.00;96994.66;5058983;28;20045;-76
2022/09/28 03:28:24;;;;;;;2.90;0.90;;;;;;;8.47;100.00;97012.56;5056001;28;20045;-76
2022/09/28 03:30:51;;;;;;;3.22;1.33;;;;;;;8.46;100.00;97030.72;5054939;28;20127;-76
2022/09/28 03:33:19;;;;;;;6.20;1.40;;;;;;;8.46;100.00;97011.75;5055978;28;20053;-77
2022/09/28 03:35:47;;;;;;;2.30;1.02;;;;;;;8.52;100.00;97028.13;5054955;28;20049;-78
2022/09/28 03:38:14;;;;;;;5.00;1.98;;;;;;;8.34;100.00;97005.38;5053251;28;20493;-78
2022/09/28 03:40:40;;;;;;;4.20;1.20;;;;;;;8.40;100.00;97011.78;5052182;28;20053;-77
2022/09/28 03:43:07;;;;;;;4.72;1.27;;;;;;;8.40;100.00;97015.31;5054295;28;20053;-77
2022/09/28 03:45:34;;;;;;;4.10;1.40;;;;;;;8.45;100.00;97012.78;5057472;28;22063;-77
2022/09/28 03:48:00;;;;;;;4.75;0.95;;;;;;;8.64;100.00;97029.03;5049842;28;20492;-76
2022/09/28 03:50:28;;;;;;;1.67;1.42;;;;;;;8.44;100.00;97007.59;5051633;28;20041;-76
2022/09/28 03:52:55;;;;;;;3.78;1.00;;;;;;;8.54;100.00;97032.28;5053595;28;20049;-76
2022/09/28 03:55:21;;;;;;;3.20;1.40;;;;;;;8.67;100.00;97034.00;5051141;28;20041;-76
2022/09/28 03:57:53;;;;;;;1.75;0.63;;;;;;;8.58;100.00;97017.25;5052117;28;20052;-76
2022/09/28 04:00:20;;;;;;;2.10;0.90;;;;;;;8.52;100.00;97011.91;5055116;28;20045;-76
2022/09/28 04:02:46;;;;;;;2.92;0.63;;;;;;;8.47;100.00;97010.69;5052910;28;20040;-76
2022/09/28 04:05:13;;;;;;;2.55;0.63;;;;;;;8.43;100.00;97009.47;5050626;28;20048;-77
2022/09/28 04:07:41;;;;;;;0.65;0.60;;;;;;;8.47;100.00;97007.16;5054411;28;20064;-76
2022/09/28 04:10:08;;;;;;;0.90;0.55;;;;;;;8.29;100.00;97018.75;5040641;28;20049;-76
2022/09/28 04:12:35;;;;;;;5.45;1.48;;;;;;;8.40;100.00;97030.72;5053524;28;20056;-78
2022/09/28 04:15:01;;;;;;;4.18;1.15;;;;;;;8.35;100.00;97025.16;5055000;28;20061;-77
2022/09/28 04:17:28;;;;;;;1.75;0.60;;;;;;;8.39;100.00;97031.78;5054240;28;20811;-77
2022/09/28 04:19:54;;;;;;;4.05;1.23;;;;;;;8.25;100.00;97036.47;5049753;28;20045;-77
2022/09/28 04:22:22;;;;;;;1.40;0.60;;;;;;;8.43;100.00;97050.06;5053823;28;20519;-79
2022/09/28 04:24:50;;;;;;;4.22;0.93;;;;;;;8.33;100.00;97020.78;5047856;28;20057;-76
2022/09/28 04:30:00;;;;;;;2.60;0.75;;;;;;;8.39;100.00;97038.03;5051271;28;20565;-76
2022/09/28 04:32:26;;;;;;;2.47;0.50;;;;;;;8.33;100.00;97011.84;5054759;28;20400;-76
2022/09/28 04:34:53;;;;;;;1.20;0.63;;;;;;;8.33;100.00;97026.19;5056633;28;20048;-75
2022/09/28 04:37:20;;;;;;;2.25;0.77;;;;;;;8.25;100.00;97022.94;5049032;28;20076;-76
2022/09/28 04:39:46;;;;;;;1.08;0.60;;;;;;;8.43;100.00;97043.81;5054025;28;20056;-76
2022/09/28 04:42:14;;;;;;;1.83;0.68;;;;;;;8.33;100.00;97018.09;5051792;28;20044;-76
2022/09/28 04:44:41;;;;;;;2.67;0.52;;;;;;;8.31;100.00;97020.19;5051720;28;20099;-76
2022/09/28 04:47:07;;;;;;;2.58;1.10;;;;;;;8.31;100.00;97017.47;5058480;28;20045;-76
2022/09/28 04:49:35;;;;;;;5.05;1.00;;;;;;;8.29;100.00;97033.09;5050128;28;20057;-76
2022/09/28 04:52:02;;;;;;;3.17;1.27;;;;;;;8.30;100.00;97036.66;5057679;28;20428;-76
2022/09/28 04:54:28;;;;;;;1.77;0.68;;;;;;;8.19;100.00;97021.97;5048804;28;20063;-76
2022/09/28 04:56:55;;;;;;;3.28;1.10;;;;;;;8.22;100.00;97029.66;5050128;28;20045;-76
2022/09/28 04:59:23;;;;;;;0.90;0.90;;;;;;;8.18;100.00;97019.50;5053172;28;20045;-76
2022/09/28 05:01:49;;;;;;;2.58;0.93;;;;;;;8.36;100.00;97040.38;5057020;28;20500;-76
2022/09/28 05:04:16;;;;;;;1.45;0.60;;;;;;;8.34;100.00;97037.88;5049457;28;20064;-76
2022/09/28 05:06:42;;;;;;;14.57;1.63;;;;;;;8.23;100.00;97019.66;5053672;28;20408;-76
2022/09/28 05:09:09;;;;;;;1.98;0.90;;;;;;;8.25;100.00;97031.91;5054518;28;20049;-76
2022/09/28 05:11:35;;;;;;;2.60;0.90;;;;;;;8.36;100.00;97033.06;5049110;28;20088;-76
2022/09/28 05:14:02;;;;;;;5.10;0.88;;;;;;;8.32;100.00;97037.25;5054673;28;20053;-76
2022/09/28 05:16:32;;;;;;;4.68;1.50;;;;;;;8.21;100.00;97021.75;5054212;28;20507;-75
2022/09/28 05:18:59;;;;;;;1.25;0.70;;;;;;;8.23;100.00;97049.41;5050697;28;20052;-76
2022/09/28 05:21:26;;;;;;;1.40;0.80;;;;;;;8.32;100.00;97048.94;5055541;28;20087;-75
2022/09/28 05:23:55;;;;;;;1.65;0.93;;;;;;;8.12;100.00;97040.16;5052577;28;20053;-76
2022/09/28 05:26:21;;;;;;;2.13;1.10;;;;;;;8.12;100.00;97042.84;5060959;28;20037;-75
2022/09/28 05:28:48;;;;;;;1.42;0.88;;;;;;;8.03;100.00;97025.25;5053726;28;20076;-76
2022/09/28 05:31:15;;;;;;;4.95;1.05;;;;;;;8.07;100.00;97042.66;5060670;28;20045;-76
2022/09/28 05:33:43;;;;;;;3.80;0.90;;;;;;;8.03;100.00;97034.19;5061329;28;20056;-76
2022/09/28 05:36:10;;;;;;;5.22;1.35;;;;;;;7.98;100.00;97031.31;5059546;28;20052;-76
2022/09/28 05:38:37;;;;;;;3.47;1.50;;;;;;;8.03;100.00;97041.47;5061500;28;20136;-76
2022/09/28 05:41:04;;;;;;;1.77;1.05;;;;;;;8.04;100.00;97037.69;5055162;28;20049;-76
2022/09/28 05:43:31;;;;;;;1.65;0.90;;;;;;;8.07;100.00;97051.63;5054023;28;20053;-76
2022/09/28 05:45:59;;;;;;;2.80;1.10;;;;;;;8.00;100.00;97037.31;5058761;28;20055;-76
2022/09/28 05:48:26;;;;;;;2.63;1.33;;;;;;;8.21;100.00;97043.41;5061361;28;20412;-76
2022/09/28 05:50:54;;;;;;;2.10;0.95;;;;;;;8.01;100.00;97019.19;5058685;28;20623;-76
2022/09/28 05:53:21;;;;;;;2.72;1.05;;;;;;;8.08;100.00;97025.41;5053751;28;20045;-76
2022/09/28 05:55:48;;;;;;;5.47;1.30;;;;;;;8.16;100.00;97054.91;5053437;28;20385;-76
2022/09/28 05:58:14;;;;;;;1.65;1.00;;;;;;;8.06;100.00;97036.44;5056739;28;20049;-75
2022/09/28 06:00:41;;;;;;;4.18;1.15;;;;;;;8.07;100.00;97040.81;5059182;28;20511;-75
2022/09/28 06:03:11;;;;;;;2.08;1.20;;;;;;;8.20;100.00;97056.09;5035230;28;20045;-75
2022/09/28 06:05:39;;;;;;;8.20;1.05;;;;;;;8.11;100.00;97047.44;5052159;28;20047;-76
2022/09/28 06:08:09;;;;;;;2.42;0.95;;;;;;;8.09;100.00;97054.13;5054693;28;20099;-75
2022/09/28 06:10:35;;;;;;;;;;;;;;;8.24;100.00;97078.97;5054339;28;20045;-75
2022/09/28 06:13:02;;;;;;;5.47;0.75;;;;;;;8.20;100.00;97074.22;5051600;28;19936;-75
2022/09/28 06:15:31;;;;;;;4.40;1.15;;;;;;;8.21;100.00;97079.41;5051792;28;20060;-75
2022/09/28 06:17:58;;;;;;;1.40;0.95;;;;;;;8.11;100.00;97060.97;5061326;28;20056;-75
2022/09/28 06:20:25;;;;;;;1.33;0.90;;;;;;;8.23;100.00;97073.78;5063647;28;20491;-75
2022/09/28 06:22:52;;;;;;;3.97;1.15;;;;;;;8.30;100.00;97082.69;5050853;28;20053;-75
2022/09/28 06:25:21;;;;;;;4.35;1.42;;;;;;;8.18;100.00;97079.03;5052916;28;20057;-75
2022/09/28 06:27:58;;;;;;;2.38;1.00;;;;;;;8.18;100.00;97081.75;5054287;28;20052;-75
2022/09/28 06:30:26;;;;;;;4.03;1.80;;;;;;;8.31;100.00;97078.94;5061368;28;20044;-75
2022/09/28 06:32:55;;;;;;;4.25;1.27;;;;;;;8.30;100.00;97088.91;5052257;28;20049;-75
2022/09/28 06:35:22;;;;;;;3.60;1.90;;;;;;;8.31;100.00;97070.81;5053021;28;20053;-75
2022/09/28 06:37:48;;;;;;;4.43;1.13;;;;;;;8.32;100.00;97069.75;5059854;28;20049;-75
2022/09/28 06:40:15;;;;;;;4.03;1.27;;;;;;;8.44;100.00;97095.06;5053698;28;20056;-75
2022/09/28 06:42:43;;;;;;;4.70;1.30;;;;;;;8.37;100.00;97078.03;5056052;28;20052;-75
2022/09/28 06:45:10;;;;;;;6.15;2.47;;;;;;;8.48;100.00;97095.47;5054941;28;20044;-75
2022/09/28 06:47:37;;;;;;;4.82;1.77;;;;;;;8.44;100.00;97102.38;5064318;28;20045;-75
2022/09/28 06:50:09;;;;;;;3.42;1.65;;;;;;;8.43;100.00;97089.84;5052250;28;20052;-75
2022/09/28 06:52:36;;;;;;;6.07;1.63;;;;;;;8.43;100.00;97100.69;5051935;28;20053;-75
2022/09/28 06:55:02;;;;;;;9.02;1.65;;;;;;;8.46;100.00;97113.81;5059191;28;20052;-75
2022/09/28 06:57:29;;;;;;;3.53;1.45;;;;;;;8.60;100.00;97109.13;5052191;28;20067;-75
2022/09/28 06:59:57;;;;;;;4.68;1.77;;;;;;;8.67;100.00;97115.28;5052370;28;20052;-75
2022/09/28 07:02:23;;;;;;;9.50;2.50;;;;;;;8.66;100.00;97095.50;5055013;28;20530;-75
2022/09/28 07:04:49;;;;;;;9.35;3.58;;;;;;;8.56;100.00;97106.00;5053990;28;20413;-75
2022/09/28 07:07:17;;;;;;;6.45;2.33;;;;;;;8.61;100.00;97106.19;5055015;28;20041;-75
2022/09/28 07:09:44;;;;;;;7.07;2.33;;;;;;;8.85;100.00;97128.03;5052856;28;20048;-75
2022/09/28 07:12:12;;;;;;;3.90;1.85;;;;;;;8.86;100.00;97132.41;5052407;28;20178;-75
2022/09/28 07:14:39;;;;;;;4.90;1.83;;;;;;;8.93;100.00;97132.34;5055438;28;20052;-75
2022/09/28 07:17:07;;;;;;;12.35;2.22;;;;;;;8.92;100.00;97117.13;5052636;28;20131;-75
2022/09/28 07:19:35;;;;;;;3.95;2.20;;;;;;;8.93;100.00;97135.88;5053598;28;20053;-75
2022/09/28 07:22:01;;;;;;;9.38;2.42;;;;;;;8.94;100.00;97125.84;5052484;28;20057;-75
2022/09/28 07:24:29;;;;;;;6.15;2.20;;;;;;;8.96;100.00;97130.00;5051118;28;20163;-76
2022/09/28 07:26:55;;;;;;;3.30;2.20;;;;;;;8.95;100.00;97122.94;5051215;28;20045;-75
2022/09/28 07:29:22;;;;;;;11.88;2.38;;;;;;;9.02;100.00;97147.25;5051967;28;20045;-75
2022/09/28 07:31:48;;;;;;;3.28;2.15;;;;;;;9.16;100.00;97137.91;5051514;28;20048;-75
2022/09/28 07:34:17;;;;;;;6.15;1.95;;;;;;;9.21;100.00;97151.66;5050968;28;20485;-75
2022/09/28 07:36:43;;;;;;;6.28;2.20;;;;;;;9.13;100.00;97142.97;5051252;28;20127;-75
2022/09/28 07:39:11;;;;;;;5.47;3.17;;;;;;;9.39;100.00;97166.25;5054358;28;20044;-75
2022/09/28 07:41:38;;;;;;;10.23;2.85;;;;;;;9.37;100.00;97157.50;5050099;28;20045;-75
2022/09/28 07:44:05;;;;;;;13.82;2.90;;;;;;;9.41;100.00;97161.44;5050679;28;20053;-75
2022/09/28 07:46:32;;;;;;;6.00;2.10;;;;;;;9.33;100.00;97178.84;5050119;28;20052;-75
2022/09/28 07:48:59;;;;;;;4.88;2.63;;;;;;;9.33;100.00;97188.84;5051526;28;20052;-75
2022/09/28 07:51:27;;;;;;;7.07;2.75;;;;;;;9.19;100.00;97164.56;5051493;28;20056;-75
2022/09/28 07:53:53;;;;;;;5.68;2.38;;;;;;;9.29;100.00;97174.06;5051351;28;20052;-74
2022/09/28 07:56:20;;;;;;;5.40;2.25;;;;;;;9.38;100.00;97194.44;5051208;28;20562;-75
2022/09/28 07:58:48;;;;;;;3.75;1.83;;;;;;;9.12;100.00;97180.09;5049688;28;20069;-75
2022/09/28 08:01:15;;;;;;;3.38;2.13;;;;;;;9.12;100.00;97176.56;5051408;28;20080;-75
2022/09/28 08:03:44;;;;;;;6.70;2.50;;;;;;;9.26;100.00;97199.78;5050404;28;20061;-75
2022/09/28 08:06:12;;;;;;;5.78;2.17;;;;;;;9.26;100.00;97182.66;5048728;28;20049;-75
2022/09/28 08:08:43;;;;;;;6.25;2.70;;;;;;;9.24;100.00;97196.44;5052466;28;20134;-75
2022/09/28 08:11:11;;;;;;;7.10;2.50;;;;;;;9.36;100.00;97208.22;5030984;28;20488;-75
2022/09/28 08:13:37;;;;;;;7.47;2.17;;;;;;;9.37;100.00;97193.59;5030116;28;20053;-75
2022/09/28 08:16:04;;;;;;;4.80;2.28;;;;;;;9.49;100.00;97204.53;5042521;28;20048;-74
2022/09/28 08:18:31;;;;;;;7.85;2.33;;;;;;;9.49;100.00;97209.13;5050914;28;20099;-75
2022/09/28 08:23:43;;;;;;;6.13;2.03;;;;;;;9.70;100.00;97215.97;5051684;28;20503;-74
2022/09/28 08:26:09;;;;;;;8.95;2.17;;;;;;;9.55;100.00;97219.06;5047821;28;20051;-75
2022/09/28 08:28:36;;;;;;;5.80;2.53;;;;;;;9.55;100.00;97200.91;5053898;28;20048;-74
2022/09/28 08:31:03;;;;;;;7.28;2.22;;;;;;;9.76;100.00;97222.38;5049440;28;20076;-74
2022/09/28 08:33:30;;;;;;;7.07;2.20;;;;;;;9.67;100.00;97200.97;5049655;28;20054;-74
2022/09/28 08:35:57;;;;;;;6.18;2.15;;;;;;;9.69;100.00;97208.88;5055609;28;20054;-75
2022/09/28 08:38:25;;;;;;;3.58;1.95;;;;;;;9.75;100.00;97191.69;5050384;28;20052;-75
2022/09/28 08:41:04;;;;;;;6.72;1.67;;;;;;;9.90;100.00;97207.56;5049982;28;20057;-75
2022/09/28 08:43:56;;;;;;;3.22;2.13;;;;;;;9.85;100.00;97196.59;5049759;28;20098;-75
2022/09/28 08:46:26;;;;;;;5.05;1.83;;;;;;;10.01;100.00;97224.97;5047163;28;20052;-75
2022/09/28 08:48:58;;;;;;;8.73;2.20;;;;;;;9.90;100.00;97205.69;5048266;28;20058;-75
2022/09/28 08:51:31;;;;;;;7.60;1.70;;;;;;;10.03;100.00;97214.72;5055496;28;20051;-75
2022/09/28 08:54:04;;;;;;;6.70;2.10;;;;;;;10.21;100.00;97230.97;5049409;28;20053;-75
2022/09/28 08:56:39;;;;;;;7.35;1.80;;;;;;;10.23;100.00;97219.88;5050535;28;20456;-75
2022/09/28 08:59:13;;;;;;;5.85;2.05;;;;;;;10.17;100.00;97221.63;5053652;28;20061;-74
2022/09/28 09:01:45;;;;;;;2.92;1.50;;;;;;;10.38;100.00;97224.94;5052994;28;20060;-75
2022/09/28 09:04:12;;;;;;;6.18;1.30;;;;;;;10.36;100.00;97229.78;5051072;28;20076;-75
2022/09/28 09:06:57;;;;;;;3.25;1.52;;;;;;;10.26;100.00;97239.25;5054255;28;20053;-75
2022/09/28 09:09:36;;;;;;;11.90;3.47;;;;;;;10.44;100.00;97251.16;5054316;28;20053;-75
2022/09/28 09:12:10;;;;;;;7.32;2.00;;;;;;;10.41;100.00;97246.19;5054098;28;20065;-74
2022/09/28 09:14:51;;;;;;;4.03;1.70;;;;;;;10.47;100.00;97255.31;5054368;28;20131;-75
2022/09/28 09:17:27;;;;;;;2.85;1.40;;;;;;;10.28;100.00;97239.88;5052428;28;20052;-74
2022/09/28 09:19:58;;;;;;;4.30;1.67;;;;;;;10.33;100.00;97274.50;5053872;28;20049;-74
2022/09/28 09:22:38;;;;;;;2.92;1.45;;;;;;;10.29;100.00;97248.84;5053558;28;20057;-75
2022/09/28 09:25:18;;;;;;;4.53;1.50;;;;;;;10.25;100.00;97245.75;5052823;28;20527;-75
2022/09/28 09:28:01;;;;;;;7.00;2.43;;;;;;;10.45;100.00;97280.00;5053882;28;20049;-75
2022/09/28 09:30:34;;;;;;;3.85;1.40;;;;;;;10.57;100.00;97277.34;5054279;28;20118;-75
2022/09/28 09:33:32;;;;;;;6.38;1.35;;;;;;;10.44;100.00;97264.75;5051302;28;20428;-75
2022/09/28 09:36:12;;;;;;;3.90;1.23;;;;;;;10.56;100.00;97281.91;5052751;28;20060;-75
2022/09/28 09:38:56;;;;;;;5.10;1.80;;;;;;;10.25;100.00;97261.22;5053826;28;20390;-74
2022/09/28 09:41:40;;;;;;;3.80;1.60;;;;;;;10.43;100.00;97277.50;5053718;28;20080;-75
2022/09/28 09:44:58;;;;;;;4.45;1.40;;;;;;;10.40;100.00;97282.56;5053124;28;20049;-75
2022/09/28 09:47:31;;;;;;;3.75;1.70;;;;;;;10.51;100.00;97281.78;5025825;28;20049;-75
2022/09/28 09:50:06;;;;;;;4.30;1.60;;;;;;;10.45;100.00;97293.59;5053367;28;20052;-75
2022/09/28 09:52:37;;;;;;;4.40;1.73;;;;;;;10.42;100.00;97273.13;5048086;28;20053;-75
2022/09/28 09:55:13;;;;;;;2.83;1.35;;;;;;;10.40;100.00;97288.00;5053406;28;20059;-75
2022/09/28 09:57:44;;;;;;;2.65;1.55;;;;;;;10.65;100.00;97285.16;5053868;28;20400;-75
2022/09/28 10:00:13;;;;;;;2.53;1.52;;;;;;;10.57;100.00;97282.78;5051806;28;20065;-75
2022/09/28 10:02:43;;;;;;;7.15;2.08;;;;;;;10.56;100.00;97284.63;5052522;28;20049;-75
2022/09/28 10:05:19;;;;;;;9.65;1.92;;;;;;;10.52;100.00;97283.44;5033453;28;20053;-75
2022/09/28 10:07:53;;;;;;;5.68;1.50;;;;;;;10.62;100.00;97310.06;5051109;28;20040;-75
2022/09/28 10:10:24;;;;;;;5.40;2.20;;;;;;;10.71;100.00;97296.97;5052476;28;20049;-76
2022/09/28 10:12:52;;;;;;;2.80;1.50;;;;;;;10.74;100.00;97293.81;5052275;28;20052;-76
2022/09/28 10:15:23;;;;;;;3.90;1.50;;;;;;;10.89;100.00;97299.63;5055080;28;20045;-75
2022/09/28 10:17:52;;;;;;;4.47;1.42;;;;;;;10.80;100.00;97290.16;5052887;28;20053;-75
2022/09/28 10:20:18;;;;;;;4.50;1.50;;;;;;;10.74;100.00;97294.63;5052952;28;20385;-76
2022/09/28 10:22:46;;;;;;;4.80;1.75;;;;;;;10.95;100.00;97290.53;5050721;28;20048;-76
2022/09/28 10:25:13;;;;;;;3.13;1.60;;;;;;;10.94;100.00;97285.34;5052094;28;20056;-75
2022/09/28 10:27:44;;;;;;;2.83;1.50;;;;;;;11.19;100.00;97293.31;5053033;28;20400;-76
2022/09/28 10:30:17;;;;;;;3.03;1.55;;;;;;;11.37;100.00;97305.16;5053642;28;20432;-76
2022/09/28 10:32:45;;;;;;;6.65;1.50;;;;;;;11.16;98.56;97281.00;5055020;28;20084;-75
2022/09/28 10:35:22;;;;;;;3.78;1.77;;;;;;;11.30;100.00;97278.06;5052321;28;20503;-76
2022/09/28 10:37:53;;;;;;;3.88;1.30;;;;;;;11.24;100.00;97285.25;5051637;28;20099;-76
2022/09/28 10:40:29;;;;;;;4.63;1.80;;;;;;;11.26;99.70;97307.63;5052568;28;20064;-76
2022/09/28 10:43:00;;;;;;;6.28;1.90;;;;;;;11.16;98.05;97297.31;5051690;28;20045;-76
2022/09/28 10:45:29;;;;;;;3.10;1.63;;;;;;;11.12;100.00;97287.13;5052313;28;20049;-76
2022/09/28 10:47:55;;;;;;;3.78;1.20;;;;;;;11.20;95.02;97294.13;5052284;28;20041;-76
2022/09/28 10:50:25;;;;;;;5.43;1.75;;;;;;;11.28;98.30;97299.22;5052210;28;20053;-76
2022/09/28 10:52:51;;;;;;;7.05;1.90;;;;;;;11.39;98.72;97297.56;5051793;28;20065;-76
2022/09/28 10:55:31;;;;;;;3.70;1.67;;;;;;;11.19;100.00;97303.38;5051188;28;20413;-76
2022/09/28 10:57:58;;;;;;;5.90;2.08;;;;;;;11.03;100.00;97292.09;5056768;28;20052;-76
2022/09/28 11:00:38;;;;;;;5.88;1.60;;;;;;;11.16;98.67;97315.53;5051838;28;20068;-76
2022/09/28 11:03:06;;;;;;;2.80;1.50;;;;;;;11.14;100.00;97296.72;5051519;28;20060;-76
2022/09/28 11:05:34;;;;;;;1.10;0.95;;;;;;;11.06;87.22;97309.84;5052137;28;20053;-76
2022/09/28 11:08:06;;;;;;;4.70;0.90;;;;;;;11.13;85.91;97291.53;5052121;28;20076;-77
2022/09/28 11:10:33;;;;;;;2.40;0.80;;;;;;;11.14;89.81;97290.44;5050141;28;20060;-76
2022/09/28 11:13:00;;;;;;;3.80;1.00;;;;;;;11.38;88.32;97283.16;5056183;28;20504;-77
2022/09/28 11:15:29;;;;;;;3.33;1.20;;;;;;;11.65;90.58;97285.38;5051781;28;20049;-76
2022/09/28 11:17:56;;;;;;;2.92;1.30;;;;;;;11.56;89.09;97281.38;5051941;28;20044;-76
2022/09/28 11:20:34;;;;;;;1.95;1.30;;;;;;;11.66;91.46;97276.97;5049781;28;20056;-76
2022/09/28 11:23:19;;;;;;;8.13;1.77;;;;;;;11.74;88.80;97299.47;5048692;28;20053;-77
2022/09/28 11:25:57;;;;;;;3.60;1.23;;;;;;;11.80;93.03;97293.06;5054665;28;20040;-76
2022/09/28 11:28:31;;;;;;;5.60;1.73;;;;;;;11.79;93.60;97296.88;5050437;28;20041;-76
2022/09/28 11:31:01;;;;;;;5.93;1.60;;;;;;;11.94;92.12;97278.16;5057666;28;20060;-77
2022/09/28 11:33:32;;;;;;;5.60;1.80;;;;;;;12.03;86.61;97301.22;5063978;28;20060;-77
2022/09/28 11:36:10;;;;;;;3.72;1.42;;;;;;;12.09;85.66;97290.44;5055665;28;20037;-76
2022/09/28 11:38:40;;;;;;;6.00;1.27;;;;;;;12.25;83.97;97289.69;5052765;28;20075;-76
2022/09/28 11:41:31;;;;;;;5.43;1.65;;;;;;;12.12;82.93;97281.78;5053383;28;20045;-76
2022/09/28 11:44:19;;;;;;;2.65;0.98;;;;;;;12.13;82.17;97278.81;5054137;28;20052;-77
2022/09/28 11:46:57;;;;;;;4.75;1.40;;;;;;;12.15;79.45;97275.84;5053496;28;20056;-76
2022/09/28 11:49:31;;;;;;;3.47;1.35;;;;;;;12.16;80.70;97280.22;5058407;28;20063;-77
2022/09/28 11:52:03;;;;;;;2.72;1.20;;;;;;;12.00;81.21;97273.66;5052461;28;20056;-77
2022/09/28 11:54:38;;;;;;;7.30;1.45;;;;;;;12.24;83.63;97260.81;5053931;28;20428;-76